createdAt,value
2023-03-20T00:02:25.522Z,9.26
2023-03-20T00:04:53.714Z,9.24
2023-03-20T00:07:21.975Z,9.24
2023-03-20T00:09:51.816Z,9.24
2023-03-20T00:12:23.692Z,9.20
2023-03-20T00:14:52.349Z,9.18
2023-03-20T00:17:21.909Z,9.15
2023-03-20T00:19:50.077Z,9.13
2023-03-20T00:22:18.307Z,9.13
2023-03-20T00:24:46.631Z,9.10
2023-03-20T00:27:17.755Z,9.10
2023-03-20T00:29:46.667Z,9.09
2023-03-20T00:32:15.519Z,9.08
2023-03-20T00:34:43.936Z,9.09
2023-03-20T00:37:13.821Z,9.06
2023-03-20T00:39:42.088Z,9.00
2023-03-20T00:42:17.936Z,8.99
2023-03-20T00:44:52.467Z,8.99
2023-03-20T00:47:22.290Z,8.98
2023-03-20T00:49:51.871Z,8.99
2023-03-20T00:52:21.733Z,9.00
2023-03-20T00:54:49.893Z,9.03
2023-03-20T00:57:24.272Z,9.10
2023-03-20T00:59:56.179Z,9.15
2023-03-20T01:02:25.629Z,9.15
2023-03-20T01:04:55.227Z,9.15
2023-03-20T01:07:23.393Z,9.16
2023-03-20T01:09:52.848Z,9.15
2023-03-20T01:12:22.768Z,9.12
2023-03-20T01:14:52.998Z,9.10
2023-03-20T01:17:23.400Z,9.10
2023-03-20T01:19:51.578Z,9.12
2023-03-20T01:22:19.960Z,9.12
2023-03-20T01:24:49.814Z,9.16
2023-03-20T01:27:20.779Z,9.19
2023-03-20T01:29:51.712Z,9.20
2023-03-20T01:32:21.149Z,9.23
2023-03-20T01:34:49.564Z,9.24
2023-03-20T01:37:20.442Z,9.24
2023-03-20T01:39:48.675Z,9.27
2023-03-20T01:42:18.798Z,9.24
2023-03-20T01:44:47.312Z,9.26
2023-03-20T01:47:19.791Z,9.23
2023-03-20T01:50:22.249Z,9.23
2023-03-20T01:52:53.789Z,9.22
2023-03-20T01:55:23.076Z,9.19
2023-03-20T01:57:52.630Z,9.13
2023-03-20T02:00:21.682Z,9.12
2023-03-20T02:02:51.261Z,9.12
2023-03-20T02:05:23.179Z,9.09
2023-03-20T02:07:58.090Z,9.09
2023-03-20T02:10:27.924Z,9.10
2023-03-20T02:12:56.269Z,9.09
2023-03-20T02:15:27.741Z,9.09
2023-03-20T02:17:57.418Z,9.09
2023-03-20T02:20:35.408Z,9.12
2023-03-20T02:23:28.773Z,9.10
2023-03-20T02:26:16.943Z,9.10
2023-03-20T02:29:24.272Z,9.09
2023-03-20T02:32:19.188Z,9.08
2023-03-20T02:35:14.031Z,9.03
2023-03-20T02:38:13.112Z,8.99
2023-03-20T02:40:46.228Z,8.98
2023-03-20T02:43:21.443Z,8.96
2023-03-20T02:45:53.384Z,8.95
2023-03-20T02:48:29.878Z,8.92
2023-03-20T02:51:01.194Z,8.92
2023-03-20T02:53:53.260Z,8.88
2023-03-20T02:56:27.975Z,8.88
2023-03-20T02:59:01.614Z,8.88
2023-03-20T03:01:34.158Z,8.85
2023-03-20T03:04:05.369Z,8.85
2023-03-20T03:06:35.985Z,8.82
2023-03-20T03:09:09.565Z,8.78
2023-03-20T03:11:44.225Z,8.72
2023-03-20T03:14:17.040Z,8.67
2023-03-20T03:16:46.146Z,8.67
2023-03-20T03:19:18.370Z,8.64
2023-03-20T03:21:47.900Z,8.64
2023-03-20T03:24:39.732Z,8.62
2023-03-20T03:27:14.661Z,8.62
2023-03-20T03:29:44.359Z,8.61
2023-03-20T03:32:29.261Z,8.58
2023-03-20T03:34:57.833Z,8.57
2023-03-20T03:37:32.177Z,8.58
2023-03-20T03:40:07.291Z,8.60
2023-03-20T03:42:38.919Z,8.58
2023-03-20T03:45:10.780Z,8.55
2023-03-20T03:47:41.347Z,8.57
2023-03-20T03:50:13.284Z,8.55
2023-03-20T03:52:42.865Z,8.58
2023-03-20T03:55:15.295Z,8.60
2023-03-20T03:57:46.971Z,8.58
2023-03-20T04:00:18.274Z,8.57
2023-03-20T04:02:49.389Z,8.58
2023-03-20T04:05:20.586Z,8.57
2023-03-20T04:07:50.934Z,8.58
2023-03-20T04:10:22.207Z,8.58
2023-03-20T04:12:50.529Z,8.58
2023-03-20T04:15:20.403Z,8.60
2023-03-20T04:17:48.967Z,8.62
2023-03-20T04:20:17.505Z,8.62
2023-03-20T04:22:45.779Z,8.62
2023-03-20T04:25:18.715Z,8.64
2023-03-20T04:27:48.880Z,8.65
2023-03-20T04:30:17.671Z,8.64
2023-03-20T04:32:47.015Z,8.67
2023-03-20T04:35:15.617Z,8.65
2023-03-20T04:37:45.369Z,8.64
2023-03-20T04:40:14.454Z,8.61
2023-03-20T04:42:42.682Z,8.62
2023-03-20T04:45:12.441Z,8.65
2023-03-20T04:47:40.667Z,8.68
2023-03-20T04:50:10.077Z,8.67
2023-03-20T04:52:38.510Z,8.65
2023-03-20T04:55:09.627Z,8.68
2023-03-20T04:57:37.758Z,8.67
2023-03-20T05:00:07.424Z,8.64
2023-03-20T05:02:38.732Z,8.61
2023-03-20T05:05:08.214Z,8.62
2023-03-20T05:07:36.361Z,8.65
2023-03-20T05:10:06.989Z,8.64
2023-03-20T05:12:35.556Z,8.64
2023-03-20T05:15:04.348Z,8.64
2023-03-20T05:17:32.461Z,8.67
2023-03-20T05:20:02.135Z,8.64
2023-03-20T05:22:30.528Z,8.65
2023-03-20T05:24:58.511Z,8.65
2023-03-20T05:27:26.871Z,8.64
2023-03-20T05:29:55.538Z,8.64
2023-03-20T05:32:23.969Z,8.64
2023-03-20T05:34:52.043Z,8.68
2023-03-20T05:37:24.045Z,8.72
2023-03-20T05:39:52.301Z,8.75
2023-03-20T05:42:20.478Z,8.83
2023-03-20T05:44:51.237Z,8.86
2023-03-20T05:47:19.389Z,8.95
2023-03-20T05:49:48.674Z,9.00
2023-03-20T05:52:16.744Z,9.06
2023-03-20T05:54:46.546Z,9.08
2023-03-20T05:57:15.379Z,9.12
2023-03-20T05:59:43.373Z,9.12
2023-03-20T06:02:11.944Z,9.09
2023-03-20T06:04:43.442Z,9.09
2023-03-20T06:07:14.342Z,9.08
2023-03-20T06:09:42.608Z,9.08
2023-03-20T06:12:12.643Z,9.18
2023-03-20T06:14:41.038Z,9.23
2023-03-20T06:17:09.528Z,9.33
2023-03-20T06:19:38.658Z,9.31
2023-03-20T06:22:07.127Z,9.27
2023-03-20T06:24:36.034Z,9.24
2023-03-20T06:27:04.200Z,9.24
2023-03-20T06:29:36.453Z,9.24
2023-03-20T06:32:04.520Z,9.16
2023-03-20T06:34:33.143Z,9.05
2023-03-20T06:37:01.649Z,8.99
2023-03-20T06:39:30.691Z,8.96
2023-03-20T06:42:00.247Z,8.85
2023-03-20T06:44:29.063Z,8.79
2023-03-20T06:47:02.440Z,8.76
2023-03-20T06:49:31.146Z,8.72
2023-03-20T06:52:00.180Z,8.67
2023-03-20T06:54:29.412Z,8.64
2023-03-20T06:56:57.970Z,8.60
2023-03-20T06:59:27.302Z,8.52
2023-03-20T07:01:58.304Z,8.52
2023-03-20T07:04:27.927Z,8.51
2023-03-20T07:06:56.864Z,8.52
2023-03-20T07:09:27.049Z,8.52
2023-03-20T07:11:56.249Z,8.58
2023-03-20T07:14:26.047Z,8.58
2023-03-20T07:16:54.768Z,8.62
2023-03-20T07:19:24.396Z,8.65
2023-03-20T07:21:58.220Z,8.69
2023-03-20T07:24:27.070Z,8.75
2023-03-20T07:26:56.123Z,8.83
2023-03-20T07:29:26.703Z,8.92
2023-03-20T07:31:55.114Z,9.00
2023-03-20T07:34:24.876Z,9.09
2023-03-20T07:37:00.681Z,9.19
2023-03-20T07:39:30.080Z,9.29
2023-03-20T07:41:58.443Z,9.39
2023-03-20T07:44:28.024Z,9.54
2023-03-20T07:46:58.644Z,9.68
2023-03-20T07:49:27.121Z,9.74
2023-03-20T07:51:57.968Z,9.79
2023-03-20T07:54:27.727Z,9.89
2023-03-20T07:56:57.264Z,10.01
2023-03-20T07:59:25.770Z,10.01
2023-03-20T08:01:54.197Z,10.01
2023-03-20T08:04:23.376Z,10.05
2023-03-20T08:06:53.475Z,10.09
2023-03-20T08:09:23.068Z,10.09
2023-03-20T08:11:52.592Z,10.15
2023-03-20T08:14:21.000Z,10.18
2023-03-20T08:17:02.420Z,10.19
2023-03-20T08:19:38.447Z,10.29
2023-03-20T08:22:07.253Z,10.37
2023-03-20T08:24:38.300Z,10.49
2023-03-20T08:27:07.648Z,10.68
2023-03-20T08:29:36.812Z,10.95
2023-03-20T08:32:05.012Z,11.29
2023-03-20T08:34:33.590Z,11.60
2023-03-20T08:37:09.241Z,11.94
2023-03-20T08:39:39.739Z,12.24
2023-03-20T08:42:09.335Z,12.41
2023-03-20T08:44:40.570Z,12.49
2023-03-20T08:47:10.493Z,12.52
2023-03-20T08:49:38.760Z,12.48
2023-03-20T08:52:07.399Z,12.44
2023-03-20T08:54:36.800Z,12.49
2023-03-20T08:57:08.023Z,12.49
2023-03-20T08:59:36.125Z,12.53
2023-03-20T09:02:04.575Z,12.51
2023-03-20T09:04:33.183Z,12.44
2023-03-20T09:07:03.143Z,12.38
2023-03-20T09:09:32.604Z,12.31
2023-03-20T09:12:01.651Z,12.28
2023-03-20T09:14:31.681Z,12.22
2023-03-20T09:17:00.258Z,12.18
2023-03-20T09:19:31.674Z,12.35
2023-03-20T09:22:00.556Z,12.61
2023-03-20T09:24:31.415Z,12.99
2023-03-20T09:27:03.110Z,13.41
2023-03-20T09:29:34.042Z,13.76
2023-03-20T09:32:02.559Z,14.06
2023-03-20T09:34:31.093Z,14.23
2023-03-20T09:36:59.518Z,14.16
2023-03-20T09:39:27.803Z,14.05
2023-03-20T09:41:57.716Z,13.88
2023-03-20T09:44:45.921Z,13.63
2023-03-20T09:47:21.332Z,13.51
2023-03-20T09:49:58.681Z,13.38
2023-03-20T09:52:29.905Z,13.23
2023-03-20T09:55:00.469Z,13.11
2023-03-20T09:57:30.289Z,13.07
2023-03-20T10:00:04.832Z,13.04
2023-03-20T10:02:41.711Z,13.11
2023-03-20T10:05:19.491Z,13.07
2023-03-20T10:07:47.713Z,13.01
2023-03-20T10:10:20.417Z,13.00
2023-03-20T10:12:54.161Z,12.96
2023-03-20T10:15:34.529Z,12.94
2023-03-20T10:18:08.541Z,12.94
2023-03-20T10:20:41.153Z,12.87
2023-03-20T10:23:13.666Z,12.87
2023-03-20T10:25:48.481Z,12.89
2023-03-20T10:28:23.865Z,12.89
2023-03-20T10:31:01.559Z,12.89
2023-03-20T10:33:43.158Z,12.82
2023-03-20T10:36:19.670Z,12.73
2023-03-20T10:38:52.038Z,12.68
2023-03-20T10:41:21.983Z,12.69
2023-03-20T10:43:51.540Z,12.66
2023-03-20T10:46:24.150Z,12.63
2023-03-20T10:48:56.160Z,12.66
2023-03-20T10:51:28.708Z,12.68
2023-03-20T10:53:59.947Z,12.70
2023-03-20T10:56:30.864Z,12.65
2023-03-20T10:59:01.225Z,12.56
2023-03-20T11:01:35.119Z,12.49
2023-03-20T11:04:04.311Z,12.44
2023-03-20T11:06:34.515Z,12.42
2023-03-20T11:09:12.731Z,12.39
2023-03-20T11:11:44.733Z,12.35
2023-03-20T11:14:18.920Z,12.28
2023-03-20T11:16:51.878Z,12.25
2023-03-20T11:19:21.789Z,12.28
2023-03-20T11:21:52.219Z,12.35
2023-03-20T11:24:27.602Z,12.44
2023-03-20T11:26:56.950Z,12.53
2023-03-20T11:29:28.465Z,12.72
2023-03-20T11:32:07.035Z,12.91
2023-03-20T11:34:38.667Z,13.04
2023-03-20T11:37:14.792Z,13.01
2023-03-20T11:39:55.561Z,12.97
2023-03-20T11:42:25.212Z,12.97
2023-03-20T11:45:01.490Z,12.93
2023-03-20T11:47:35.728Z,12.83
2023-03-20T11:50:07.346Z,12.75
2023-03-20T11:52:36.956Z,12.73
2023-03-20T11:55:08.281Z,12.79
2023-03-20T11:57:38.055Z,12.80
2023-03-20T12:00:18.989Z,12.91
2023-03-20T12:02:51.412Z,12.97
2023-03-20T12:05:31.122Z,12.99
2023-03-20T12:08:02.560Z,12.97
2023-03-20T12:10:34.458Z,13.01
2023-03-20T12:13:06.638Z,13.06
2023-03-20T12:15:37.340Z,13.04
2023-03-20T12:18:13.445Z,13.06
2023-03-20T12:20:45.431Z,13.07
2023-03-20T12:23:15.333Z,13.19
2023-03-20T12:25:50.563Z,13.32
2023-03-20T12:28:25.877Z,13.41
2023-03-20T12:31:07.483Z,13.49
2023-03-20T12:33:45.748Z,13.62
2023-03-20T12:36:16.777Z,13.75
2023-03-20T12:38:46.061Z,13.88
2023-03-20T12:41:17.230Z,13.86
2023-03-20T12:44:10.154Z,13.81
2023-03-20T12:46:44.455Z,13.63
2023-03-20T12:49:22.263Z,13.47
2023-03-20T12:51:57.775Z,13.35
2023-03-20T12:54:37.262Z,13.28
2023-03-20T12:57:14.735Z,13.24
2023-03-20T12:59:55.972Z,13.24
2023-03-20T13:02:36.215Z,13.16
2023-03-20T13:05:19.797Z,13.08
2023-03-20T13:07:59.200Z,13.14
2023-03-20T13:10:31.759Z,13.20
2023-03-20T13:13:08.582Z,13.26
2023-03-20T13:15:49.622Z,13.28
2023-03-20T13:18:22.132Z,13.37
2023-03-20T13:20:52.304Z,13.38
2023-03-20T13:23:27.530Z,13.48
2023-03-20T13:26:08.718Z,13.59
2023-03-20T13:28:40.964Z,13.63
2023-03-20T13:31:20.831Z,13.61
2023-03-20T13:33:55.239Z,13.55
2023-03-20T13:36:34.052Z,13.34
2023-03-20T13:39:04.998Z,13.24
2023-03-20T13:41:35.078Z,13.19
2023-03-20T13:44:04.804Z,13.14
2023-03-20T13:46:37.360Z,13.04
2023-03-20T13:49:09.950Z,12.99
2023-03-20T13:51:43.952Z,12.94
2023-03-20T13:54:19.658Z,12.83
2023-03-20T13:56:55.367Z,12.79
2023-03-20T13:59:38.619Z,12.70
2023-03-20T14:02:17.911Z,12.65
2023-03-20T14:04:47.599Z,12.53
2023-03-20T14:07:32.791Z,12.48
2023-03-20T14:10:37.283Z,12.38
2023-03-20T14:13:08.603Z,12.29
2023-03-20T14:15:38.577Z,12.20
2023-03-20T14:18:08.412Z,12.11
2023-03-20T14:20:39.806Z,11.98
2023-03-20T14:23:17.774Z,11.94
2023-03-20T14:25:46.729Z,11.89
2023-03-20T14:28:31.650Z,11.87
2023-03-20T14:31:15.607Z,11.83
2023-03-20T14:33:45.299Z,11.83
2023-03-20T14:36:20.856Z,11.80
2023-03-20T14:39:08.383Z,11.77
2023-03-20T14:41:46.227Z,11.73
2023-03-20T14:44:26.525Z,11.74
2023-03-20T14:46:58.679Z,11.76
2023-03-20T14:49:55.976Z,11.79
2023-03-20T14:52:33.206Z,11.83
2023-03-20T14:55:30.489Z,11.86
2023-03-20T14:57:59.336Z,11.95
2023-03-20T15:00:30.576Z,12.00
2023-03-20T15:03:09.890Z,12.05
2023-03-20T15:05:39.335Z,12.05
2023-03-20T15:08:09.637Z,12.11
2023-03-20T15:10:46.854Z,12.20
2023-03-20T15:13:17.465Z,12.20
2023-03-20T15:15:54.419Z,12.20
2023-03-20T15:18:24.787Z,12.18
2023-03-20T15:20:53.232Z,12.15
2023-03-20T15:23:21.498Z,12.11
2023-03-20T15:25:51.742Z,12.08
2023-03-20T15:28:21.781Z,12.05
2023-03-20T15:30:51.440Z,12.05
2023-03-20T15:33:22.235Z,12.05
2023-03-20T15:35:50.845Z,11.98
2023-03-20T15:38:19.865Z,11.93
2023-03-20T15:40:51.362Z,11.89
2023-03-20T15:43:24.113Z,11.86
2023-03-20T15:46:02.944Z,11.80
2023-03-20T15:48:40.332Z,11.77
2023-03-20T15:51:11.430Z,11.77
2023-03-20T15:53:40.927Z,11.74
2023-03-20T15:56:18.275Z,11.76
2023-03-20T15:58:53.123Z,11.79
2023-03-20T16:01:23.942Z,11.74
2023-03-20T16:03:54.487Z,11.74
2023-03-20T16:06:27.130Z,11.73
2023-03-20T16:09:00.458Z,11.71
2023-03-20T16:11:38.850Z,11.67
2023-03-20T16:14:08.984Z,11.64
2023-03-20T16:16:39.159Z,11.60
2023-03-20T16:19:08.653Z,11.56
2023-03-20T16:21:38.106Z,11.49
2023-03-20T16:24:09.129Z,11.45
2023-03-20T16:26:39.529Z,11.43
2023-03-20T16:29:12.935Z,11.39
2023-03-20T16:31:47.153Z,11.34
2023-03-20T16:34:19.443Z,11.31
2023-03-20T16:36:54.227Z,11.25
2023-03-20T16:39:23.689Z,11.21
2023-03-20T16:42:01.460Z,11.16
2023-03-20T16:44:35.424Z,11.16
2023-03-20T16:47:17.762Z,11.14
2023-03-20T16:50:05.595Z,11.08
2023-03-20T16:52:38.422Z,11.05
2023-03-20T16:55:13.911Z,10.99
2023-03-20T16:57:45.402Z,10.98
2023-03-20T17:00:27.824Z,10.88
2023-03-20T17:03:08.335Z,10.84
2023-03-20T17:05:45.875Z,10.76
2023-03-20T17:08:16.186Z,10.71
2023-03-20T17:10:46.677Z,10.68
2023-03-20T17:13:15.644Z,10.64
2023-03-20T17:15:45.643Z,10.61
2023-03-20T17:18:16.052Z,10.56
2023-03-20T17:20:44.078Z,10.55
2023-03-20T17:23:15.042Z,10.49
2023-03-20T17:25:45.299Z,10.42
2023-03-20T17:28:20.609Z,10.36
2023-03-20T17:30:53.162Z,10.27
2023-03-20T17:33:22.039Z,10.23
2023-03-20T17:35:51.020Z,10.20
2023-03-20T17:38:22.501Z,10.19
2023-03-20T17:40:56.451Z,10.15
2023-03-20T17:43:24.769Z,10.13
2023-03-20T17:45:54.603Z,10.12
2023-03-20T17:48:22.880Z,10.08
2023-03-20T17:50:52.907Z,10.08
2023-03-20T17:53:24.036Z,10.05
2023-03-20T17:55:52.727Z,10.01
2023-03-20T17:58:23.051Z,9.97
2023-03-20T18:00:55.194Z,9.95
2023-03-20T18:03:25.108Z,9.92
2023-03-20T18:05:56.167Z,9.92
2023-03-20T18:08:24.224Z,9.91
2023-03-20T18:10:54.110Z,9.88
2023-03-20T18:13:25.122Z,9.84
2023-03-20T18:15:57.261Z,9.84
2023-03-20T18:18:26.740Z,9.81
2023-03-20T18:20:59.439Z,9.78
2023-03-20T18:23:27.840Z,9.78
2023-03-20T18:25:56.848Z,9.73
2023-03-20T18:28:24.893Z,9.73
2023-03-20T18:30:55.636Z,9.70
2023-03-20T18:33:27.606Z,9.68
2023-03-20T18:35:58.527Z,9.62
2023-03-20T18:38:28.101Z,9.60
2023-03-20T18:40:57.259Z,9.57
2023-03-20T18:43:27.692Z,9.54
2023-03-20T18:45:58.368Z,9.54
2023-03-20T18:48:26.941Z,9.54
2023-03-20T18:51:01.377Z,9.48
2023-03-20T18:53:31.232Z,9.48
2023-03-20T18:56:00.574Z,9.44
2023-03-20T18:58:31.553Z,9.43
2023-03-20T19:01:00.632Z,9.40
2023-03-20T19:03:28.962Z,9.39
2023-03-20T19:05:59.350Z,9.37
2023-03-20T19:08:29.824Z,9.39
2023-03-20T19:11:00.282Z,9.34
2023-03-20T19:13:28.571Z,9.36
2023-03-20T19:15:58.056Z,9.34
2023-03-20T19:18:27.222Z,9.33
2023-03-20T19:20:56.824Z,9.31
2023-03-20T19:23:28.623Z,9.33
2023-03-20T19:25:56.732Z,9.29
2023-03-20T19:28:38.752Z,9.29
2023-03-20T19:31:09.482Z,9.31
2023-03-20T19:33:38.534Z,9.31
2023-03-20T19:36:09.722Z,9.31
2023-03-20T19:38:38.829Z,9.34
2023-03-20T19:41:08.807Z,9.34
2023-03-20T19:43:51.760Z,9.33
2023-03-20T19:46:37.998Z,9.29
2023-03-20T19:49:10.373Z,9.31
2023-03-20T19:51:39.670Z,9.27
2023-03-20T19:54:07.866Z,9.24
2023-03-20T19:56:35.905Z,9.19
2023-03-20T19:59:07.283Z,9.19
2023-03-20T20:01:36.262Z,9.19
2023-03-20T20:04:05.288Z,9.15
2023-03-20T20:06:33.474Z,9.16
2023-03-20T20:09:01.853Z,9.13
2023-03-20T20:11:30.410Z,9.10
2023-03-20T20:14:08.522Z,9.10
2023-03-20T20:16:42.598Z,9.10
2023-03-20T20:19:10.879Z,9.09
2023-03-20T20:24:29.687Z,9.03
2023-03-20T20:27:15.853Z,9.05
2023-03-20T20:29:48.405Z,9.00
2023-03-20T20:32:18.801Z,9.00
2023-03-20T20:40:30.466Z,8.95
2023-03-20T20:43:01.746Z,8.95
2023-03-20T20:45:32.404Z,8.95
2023-03-20T20:48:04.138Z,8.89
2023-03-20T20:50:35.878Z,8.92
2023-03-20T20:53:04.881Z,8.89
2023-03-20T20:55:33.011Z,8.89
2023-03-20T20:58:04.296Z,8.88
2023-03-20T21:00:48.994Z,8.86
2023-03-20T21:03:21.072Z,8.83
2023-03-20T21:05:51.925Z,8.85
2023-03-20T21:08:22.072Z,8.82
2023-03-20T21:10:54.039Z,8.78
2023-03-20T21:13:22.357Z,8.72
2023-03-20T21:15:58.764Z,8.71
2023-03-20T21:18:29.666Z,8.69
2023-03-20T21:21:05.095Z,8.65
2023-03-20T21:23:36.037Z,8.62
2023-03-20T21:26:04.879Z,8.60
2023-03-20T21:28:33.074Z,8.60
2023-03-20T21:31:23.142Z,8.64
2023-03-20T21:33:57.340Z,8.60
2023-03-20T21:36:29.662Z,8.60
2023-03-20T21:39:07.846Z,8.55
2023-03-20T21:41:39.982Z,8.51
2023-03-20T21:44:16.613Z,8.50
2023-03-20T21:50:36.719Z,8.51
2023-03-20T22:10:10.975Z,8.52
2023-03-20T22:18:46.731Z,8.52
2023-03-20T22:24:12.558Z,8.54
2023-03-20T22:35:23.015Z,8.50
2023-03-20T22:41:37.964Z,8.50
2023-03-20T22:44:25.918Z,8.51
2023-03-20T22:46:43.991Z,8.51
2023-03-20T22:49:07.464Z,8.48
2023-03-20T22:51:43.743Z,8.48
2023-03-20T22:54:16.885Z,8.48
2023-03-20T22:56:47.822Z,8.44
2023-03-20T22:59:17.072Z,8.45
2023-03-20T23:01:47.646Z,8.47
2023-03-20T23:04:15.993Z,8.51
2023-03-20T23:06:44.091Z,8.51
2023-03-20T23:09:15.706Z,8.50
2023-03-20T23:11:44.328Z,8.47
2023-03-20T23:14:22.255Z,8.47
2023-03-20T23:16:50.995Z,8.50
2023-03-20T23:19:19.202Z,8.50
2023-03-20T23:21:47.671Z,8.50
2023-03-20T23:24:16.944Z,8.51
2023-03-20T23:26:45.617Z,8.52
2023-03-20T23:29:17.793Z,8.50
2023-03-20T23:31:47.353Z,8.52
2023-03-20T23:34:17.770Z,8.48
2023-03-20T23:36:47.480Z,8.47
2023-03-20T23:39:16.293Z,8.47
2023-03-20T23:42:06.204Z,8.44
2023-03-20T23:44:35.020Z,8.47
2023-03-20T23:47:17.866Z,8.45
2023-03-20T23:49:48.037Z,8.45
2023-03-20T23:52:16.788Z,8.42
2023-03-20T23:54:46.034Z,8.41
2023-03-20T23:57:14.316Z,8.40
2023-03-20T23:59:44.299Z,8.37
